sensor_id;sensor_type;location;lat;lon;timestamp;temperature;humidity
65046;DHT22;54657;52.022;5.534;2023-06-14T00:01:17;20.90;40.00
65046;DHT22;54657;52.022;5.534;2023-06-14T00:03:45;20.90;40.00
65046;DHT22;54657;52.022;5.534;2023-06-14T00:06:12;20.90;40.10
65046;DHT22;54657;52.022;5.534;2023-06-14T00:08:38;20.90;40.30
65046;DHT22;54657;52.022;5.534;2023-06-14T00:11:05;20.80;40.50
65046;DHT22;54657;52.022;5.534;2023-06-14T00:13:30;20.80;40.40
65046;DHT22;54657;52.022;5.534;2023-06-14T00:15:56;20.70;40.50
65046;DHT22;54657;52.022;5.534;2023-06-14T00:18:22;20.70;40.50
65046;DHT22;54657;52.022;5.534;2023-06-14T00:20:50;20.70;40.30
65046;DHT22;54657;52.022;5.534;2023-06-14T00:23:16;20.70;40.60
65046;DHT22;54657;52.022;5.534;2023-06-14T00:25:41;20.60;40.70
65046;DHT22;54657;52.022;5.534;2023-06-14T00:28:07;20.60;40.70
65046;DHT22;54657;52.022;5.534;2023-06-14T00:30:32;20.50;40.80
65046;DHT22;54657;52.022;5.534;2023-06-14T00:32:58;20.50;40.80
65046;DHT22;54657;52.022;5.534;2023-06-14T00:35:24;20.50;41.10
65046;DHT22;54657;52.022;5.534;2023-06-14T00:37:50;20.40;41.10
65046;DHT22;54657;52.022;5.534;2023-06-14T00:40:16;20.40;41.30
65046;DHT22;54657;52.022;5.534;2023-06-14T00:42:41;20.40;41.40
65046;DHT22;54657;52.022;5.534;2023-06-14T00:45:07;20.40;41.50
65046;DHT22;54657;52.022;5.534;2023-06-14T00:47:34;20.30;41.50
65046;DHT22;54657;52.022;5.534;2023-06-14T00:50:00;20.30;41.70
65046;DHT22;54657;52.022;5.534;2023-06-14T00:52:27;20.40;41.70
65046;DHT22;54657;52.022;5.534;2023-06-14T00:54:53;20.40;41.40
65046;DHT22;54657;52.022;5.534;2023-06-14T00:57:19;20.40;41.70
65046;DHT22;54657;52.022;5.534;2023-06-14T00:59:48;20.40;41.60
65046;DHT22;54657;52.022;5.534;2023-06-14T01:02:14;20.40;41.70
65046;DHT22;54657;52.022;5.534;2023-06-14T01:04:45;20.40;41.90
65046;DHT22;54657;52.022;5.534;2023-06-14T01:13:12;20.40;42.70
65046;DHT22;54657;52.022;5.534;2023-06-14T01:15:42;20.30;43.10
65046;DHT22;54657;52.022;5.534;2023-06-14T01:18:08;20.30;41.80
65046;DHT22;54657;52.022;5.534;2023-06-14T01:20:43;20.30;41.90
65046;DHT22;54657;52.022;5.534;2023-06-14T01:23:10;20.30;42.00
65046;DHT22;54657;52.022;5.534;2023-06-14T01:25:37;20.30;42.00
65046;DHT22;54657;52.022;5.534;2023-06-14T01:28:06;20.40;41.90
65046;DHT22;54657;52.022;5.534;2023-06-14T01:30:39;20.40;42.10
65046;DHT22;54657;52.022;5.534;2023-06-14T01:33:11;20.40;42.00
65046;DHT22;54657;52.022;5.534;2023-06-14T01:35:37;20.50;42.00
65046;DHT22;54657;52.022;5.534;2023-06-14T01:38:03;20.50;41.90
65046;DHT22;54657;52.022;5.534;2023-06-14T01:40:31;20.60;41.80
65046;DHT22;54657;52.022;5.534;2023-06-14T01:42:58;20.60;42.00
65046;DHT22;54657;52.022;5.534;2023-06-14T01:45:24;20.50;42.00
65046;DHT22;54657;52.022;5.534;2023-06-14T01:47:51;20.60;42.00
65046;DHT22;54657;52.022;5.534;2023-06-14T01:50:19;20.60;42.10
65046;DHT22;54657;52.022;5.534;2023-06-14T01:52:45;20.60;42.10
65046;DHT22;54657;52.022;5.534;2023-06-14T01:55:11;20.60;42.00
65046;DHT22;54657;52.022;5.534;2023-06-14T01:57:37;20.50;42.10
65046;DHT22;54657;52.022;5.534;2023-06-14T02:00:04;20.50;42.90
65046;DHT22;54657;52.022;5.534;2023-06-14T02:02:33;20.50;42.90
65046;DHT22;54657;52.022;5.534;2023-06-14T02:04:59;20.40;42.00
65046;DHT22;54657;52.022;5.534;2023-06-14T02:07:24;20.30;42.30
65046;DHT22;54657;52.022;5.534;2023-06-14T02:09:50;20.20;42.40
65046;DHT22;54657;52.022;5.534;2023-06-14T02:12:15;20.20;42.50
65046;DHT22;54657;52.022;5.534;2023-06-14T02:14:41;20.10;42.40
65046;DHT22;54657;52.022;5.534;2023-06-14T02:17:07;20.10;42.50
65046;DHT22;54657;52.022;5.534;2023-06-14T02:19:33;20.00;42.40
65046;DHT22;54657;52.022;5.534;2023-06-14T02:21:58;20.00;42.70
65046;DHT22;54657;52.022;5.534;2023-06-14T02:24:24;19.90;42.90
65046;DHT22;54657;52.022;5.534;2023-06-14T02:26:50;19.90;42.90
65046;DHT22;54657;52.022;5.534;2023-06-14T02:29:15;19.80;42.90
65046;DHT22;54657;52.022;5.534;2023-06-14T02:31:41;19.80;43.20
65046;DHT22;54657;52.022;5.534;2023-06-14T02:34:07;19.80;43.10
65046;DHT22;54657;52.022;5.534;2023-06-14T02:36:34;19.80;43.10
65046;DHT22;54657;52.022;5.534;2023-06-14T02:39:00;19.80;43.00
65046;DHT22;54657;52.022;5.534;2023-06-14T02:41:26;19.80;43.10
65046;DHT22;54657;52.022;5.534;2023-06-14T02:43:55;19.80;43.10
65046;DHT22;54657;52.022;5.534;2023-06-14T02:46:21;19.80;43.30
65046;DHT22;54657;52.022;5.534;2023-06-14T02:48:47;19.70;43.40
65046;DHT22;54657;52.022;5.534;2023-06-14T02:51:12;19.80;43.10
65046;DHT22;54657;52.022;5.534;2023-06-14T02:53:38;19.70;43.50
65046;DHT22;54657;52.022;5.534;2023-06-14T02:56:04;19.70;43.30
65046;DHT22;54657;52.022;5.534;2023-06-14T02:58:30;19.60;43.60
65046;DHT22;54657;52.022;5.534;2023-06-14T03:00:55;19.60;43.70
65046;DHT22;54657;52.022;5.534;2023-06-14T03:03:21;19.50;43.60
65046;DHT22;54657;52.022;5.534;2023-06-14T03:05:50;19.60;43.70
65046;DHT22;54657;52.022;5.534;2023-06-14T03:08:17;19.60;43.70
65046;DHT22;54657;52.022;5.534;2023-06-14T03:10:46;19.60;43.70
65046;DHT22;54657;52.022;5.534;2023-06-14T03:13:12;19.60;43.80
65046;DHT22;54657;52.022;5.534;2023-06-14T03:15:38;19.50;43.80
65046;DHT22;54657;52.022;5.534;2023-06-14T03:18:04;19.60;44.00
65046;DHT22;54657;52.022;5.534;2023-06-14T03:20:30;19.60;43.70
65046;DHT22;54657;52.022;5.534;2023-06-14T03:23:02;19.50;44.00
65046;DHT22;54657;52.022;5.534;2023-06-14T03:25:28;19.40;44.10
65046;DHT22;54657;52.022;5.534;2023-06-14T03:27:57;19.40;44.20
65046;DHT22;54657;52.022;5.534;2023-06-14T03:30:22;19.30;44.00
65046;DHT22;54657;52.022;5.534;2023-06-14T03:32:48;19.30;44.50
65046;DHT22;54657;52.022;5.534;2023-06-14T03:35:14;19.30;44.70
65046;DHT22;54657;52.022;5.534;2023-06-14T03:37:46;19.30;44.40
65046;DHT22;54657;52.022;5.534;2023-06-14T03:40:12;19.20;44.60
65046;DHT22;54657;52.022;5.534;2023-06-14T03:42:39;19.20;44.40
65046;DHT22;54657;52.022;5.534;2023-06-14T03:45:06;19.10;44.70
65046;DHT22;54657;52.022;5.534;2023-06-14T03:47:31;19.20;44.70
65046;DHT22;54657;52.022;5.534;2023-06-14T03:49:57;19.20;44.50
65046;DHT22;54657;52.022;5.534;2023-06-14T03:52:23;19.10;45.10
65046;DHT22;54657;52.022;5.534;2023-06-14T03:54:48;19.10;44.80
65046;DHT22;54657;52.022;5.534;2023-06-14T03:57:15;19.10;44.80
65046;DHT22;54657;52.022;5.534;2023-06-14T03:59:40;19.10;44.90
65046;DHT22;54657;52.022;5.534;2023-06-14T04:02:07;19.10;44.90
65046;DHT22;54657;52.022;5.534;2023-06-14T04:04:34;19.00;45.00
65046;DHT22;54657;52.022;5.534;2023-06-14T04:07:01;19.00;45.70
65046;DHT22;54657;52.022;5.534;2023-06-14T04:09:29;19.00;45.10
65046;DHT22;54657;52.022;5.534;2023-06-14T04:11:55;19.00;45.10
65046;DHT22;54657;52.022;5.534;2023-06-14T04:14:21;19.00;45.10
65046;DHT22;54657;52.022;5.534;2023-06-14T04:16:47;19.00;45.10
65046;DHT22;54657;52.022;5.534;2023-06-14T04:19:16;19.00;45.20
65046;DHT22;54657;52.022;5.534;2023-06-14T04:21:42;19.00;45.20
65046;DHT22;54657;52.022;5.534;2023-06-14T04:24:08;19.00;45.00
65046;DHT22;54657;52.022;5.534;2023-06-14T04:26:49;19.10;45.20
65046;DHT22;54657;52.022;5.534;2023-06-14T04:29:15;19.20;45.60
65046;DHT22;54657;52.022;5.534;2023-06-14T04:31:42;19.30;44.90
65046;DHT22;54657;52.022;5.534;2023-06-14T04:34:08;19.50;44.80
65046;DHT22;54657;52.022;5.534;2023-06-14T04:36:34;19.60;44.60
65046;DHT22;54657;52.022;5.534;2023-06-14T04:39:05;19.80;44.40
65046;DHT22;54657;52.022;5.534;2023-06-14T04:41:31;19.90;44.40
65046;DHT22;54657;52.022;5.534;2023-06-14T04:44:00;20.00;44.20
65046;DHT22;54657;52.022;5.534;2023-06-14T04:46:29;20.00;44.70
65046;DHT22;54657;52.022;5.534;2023-06-14T04:48:55;20.10;44.50
65046;DHT22;54657;52.022;5.534;2023-06-14T04:51:22;20.20;44.70
65046;DHT22;54657;52.022;5.534;2023-06-14T04:53:55;20.20;45.00
65046;DHT22;54657;52.022;5.534;2023-06-14T04:56:23;20.20;44.40
65046;DHT22;54657;52.022;5.534;2023-06-14T04:58:50;20.20;44.50
65046;DHT22;54657;52.022;5.534;2023-06-14T05:01:16;20.10;44.70
65046;DHT22;54657;52.022;5.534;2023-06-14T05:03:41;20.20;44.70
65046;DHT22;54657;52.022;5.534;2023-06-14T05:06:10;20.20;44.90
65046;DHT22;54657;52.022;5.534;2023-06-14T05:08:36;20.20;44.80
65046;DHT22;54657;52.022;5.534;2023-06-14T05:11:02;20.20;44.80
65046;DHT22;54657;52.022;5.534;2023-06-14T05:13:27;20.20;44.80
65046;DHT22;54657;52.022;5.534;2023-06-14T05:15:53;20.10;44.90
65046;DHT22;54657;52.022;5.534;2023-06-14T05:18:19;20.10;44.80
65046;DHT22;54657;52.022;5.534;2023-06-14T05:20:45;20.00;45.20
65046;DHT22;54657;52.022;5.534;2023-06-14T05:23:11;20.00;45.20
65046;DHT22;54657;52.022;5.534;2023-06-14T05:25:44;20.00;45.20
65046;DHT22;54657;52.022;5.534;2023-06-14T05:28:10;20.10;45.30
65046;DHT22;54657;52.022;5.534;2023-06-14T05:30:38;20.10;45.10
65046;DHT22;54657;52.022;5.534;2023-06-14T05:33:04;20.20;45.40
65046;DHT22;54657;52.022;5.534;2023-06-14T05:35:29;20.20;45.10
65046;DHT22;54657;52.022;5.534;2023-06-14T05:37:55;20.10;45.10
65046;DHT22;54657;52.022;5.534;2023-06-14T05:40:20;20.10;45.10
65046;DHT22;54657;52.022;5.534;2023-06-14T05:42:46;20.20;45.40
65046;DHT22;54657;52.022;5.534;2023-06-14T05:45:12;20.20;45.20
65046;DHT22;54657;52.022;5.534;2023-06-14T05:47:37;20.20;44.90
65046;DHT22;54657;52.022;5.534;2023-06-14T05:50:03;20.20;44.90
65046;DHT22;54657;52.022;5.534;2023-06-14T05:52:29;20.20;45.10
65046;DHT22;54657;52.022;5.534;2023-06-14T05:54:55;20.30;44.80
65046;DHT22;54657;52.022;5.534;2023-06-14T05:57:20;20.40;44.90
65046;DHT22;54657;52.022;5.534;2023-06-14T05:59:46;20.40;44.70
65046;DHT22;54657;52.022;5.534;2023-06-14T06:02:11;20.40;44.80
65046;DHT22;54657;52.022;5.534;2023-06-14T06:04:37;20.50;44.90
65046;DHT22;54657;52.022;5.534;2023-06-14T06:07:03;20.50;44.90
65046;DHT22;54657;52.022;5.534;2023-06-14T06:09:29;20.50;44.70
65046;DHT22;54657;52.022;5.534;2023-06-14T06:11:54;20.60;45.60
65046;DHT22;54657;52.022;5.534;2023-06-14T06:14:20;20.60;44.70
65046;DHT22;54657;52.022;5.534;2023-06-14T06:16:46;20.70;44.80
65046;DHT22;54657;52.022;5.534;2023-06-14T06:19:12;20.70;44.50
65046;DHT22;54657;52.022;5.534;2023-06-14T06:21:37;20.70;44.60
65046;DHT22;54657;52.022;5.534;2023-06-14T06:24:05;20.80;44.50
65046;DHT22;54657;52.022;5.534;2023-06-14T06:26:31;20.90;44.60
65046;DHT22;54657;52.022;5.534;2023-06-14T06:28:57;21.00;44.50
65046;DHT22;54657;52.022;5.534;2023-06-14T06:31:23;21.10;44.40
65046;DHT22;54657;52.022;5.534;2023-06-14T06:33:49;21.30;44.20
65046;DHT22;54657;52.022;5.534;2023-06-14T06:36:15;21.40;44.00
65046;DHT22;54657;52.022;5.534;2023-06-14T06:38:42;21.50;44.00
65046;DHT22;54657;52.022;5.534;2023-06-14T06:41:07;21.60;43.90
65046;DHT22;54657;52.022;5.534;2023-06-14T06:43:33;21.80;44.00
65046;DHT22;54657;52.022;5.534;2023-06-14T06:45:58;21.90;43.80
65046;DHT22;54657;52.022;5.534;2023-06-14T06:48:24;22.10;43.70
65046;DHT22;54657;52.022;5.534;2023-06-14T06:50:50;22.20;43.30
65046;DHT22;54657;52.022;5.534;2023-06-14T06:53:16;22.30;43.30
65046;DHT22;54657;52.022;5.534;2023-06-14T06:55:44;22.40;43.40
65046;DHT22;54657;52.022;5.534;2023-06-14T06:58:09;22.40;43.20
65046;DHT22;54657;52.022;5.534;2023-06-14T07:00:35;22.50;43.40
65046;DHT22;54657;52.022;5.534;2023-06-14T07:03:01;22.60;43.40
65046;DHT22;54657;52.022;5.534;2023-06-14T07:05:26;22.80;43.10
65046;DHT22;54657;52.022;5.534;2023-06-14T07:07:52;22.70;43.00
65046;DHT22;54657;52.022;5.534;2023-06-14T07:10:18;22.80;43.10
65046;DHT22;54657;52.022;5.534;2023-06-14T07:12:44;22.80;43.00
65046;DHT22;54657;52.022;5.534;2023-06-14T07:15:10;22.90;43.10
65046;DHT22;54657;52.022;5.534;2023-06-14T07:17:35;23.10;42.90
65046;DHT22;54657;52.022;5.534;2023-06-14T07:20:03;23.30;42.60
65046;DHT22;54657;52.022;5.534;2023-06-14T07:22:38;23.40;42.50
65046;DHT22;54657;52.022;5.534;2023-06-14T07:25:04;23.50;42.10
65046;DHT22;54657;52.022;5.534;2023-06-14T07:27:30;23.60;41.90
65046;DHT22;54657;52.022;5.534;2023-06-14T07:29:55;23.60;41.90
65046;DHT22;54657;52.022;5.534;2023-06-14T07:32:21;23.60;41.80
65046;DHT22;54657;52.022;5.534;2023-06-14T07:34:46;23.70;41.80
65046;DHT22;54657;52.022;5.534;2023-06-14T07:37:12;23.70;41.70
65046;DHT22;54657;52.022;5.534;2023-06-14T07:39:38;23.70;41.50
65046;DHT22;54657;52.022;5.534;2023-06-14T07:42:03;23.80;41.50
65046;DHT22;54657;52.022;5.534;2023-06-14T07:44:29;23.90;41.60
65046;DHT22;54657;52.022;5.534;2023-06-14T07:46:58;24.10;41.60
65046;DHT22;54657;52.022;5.534;2023-06-14T07:49:27;24.20;41.30
65046;DHT22;54657;52.022;5.534;2023-06-14T07:51:52;24.40;41.20
65046;DHT22;54657;52.022;5.534;2023-06-14T07:54:19;24.50;41.00
65046;DHT22;54657;52.022;5.534;2023-06-14T07:56:44;24.50;40.70
65046;DHT22;54657;52.022;5.534;2023-06-14T07:59:10;24.70;40.90
65046;DHT22;54657;52.022;5.534;2023-06-14T08:01:35;24.70;40.60
65046;DHT22;54657;52.022;5.534;2023-06-14T08:04:01;24.70;40.20
65046;DHT22;54657;52.022;5.534;2023-06-14T08:06:27;24.60;40.10
65046;DHT22;54657;52.022;5.534;2023-06-14T08:08:52;24.60;40.20
65046;DHT22;54657;52.022;5.534;2023-06-14T08:11:18;24.50;40.00
65046;DHT22;54657;52.022;5.534;2023-06-14T08:13:43;24.50;39.80
65046;DHT22;54657;52.022;5.534;2023-06-14T08:16:09;24.50;39.90
65046;DHT22;54657;52.022;5.534;2023-06-14T08:18:36;24.60;40.00
65046;DHT22;54657;52.022;5.534;2023-06-14T08:21:01;24.70;39.80
65046;DHT22;54657;52.022;5.534;2023-06-14T08:23:28;24.80;39.80
65046;DHT22;54657;52.022;5.534;2023-06-14T08:25:53;24.90;39.60
65046;DHT22;54657;52.022;5.534;2023-06-14T08:28:19;25.00;39.60
65046;DHT22;54657;52.022;5.534;2023-06-14T08:30:45;25.20;39.50
65046;DHT22;54657;52.022;5.534;2023-06-14T08:33:11;25.20;39.30
65046;DHT22;54657;52.022;5.534;2023-06-14T08:35:36;25.20;39.90
65046;DHT22;54657;52.022;5.534;2023-06-14T08:38:03;25.30;39.30
65046;DHT22;54657;52.022;5.534;2023-06-14T08:40:30;25.30;39.00
65046;DHT22;54657;52.022;5.534;2023-06-14T08:42:57;25.40;39.00
65046;DHT22;54657;52.022;5.534;2023-06-14T08:45:24;25.30;39.00
65046;DHT22;54657;52.022;5.534;2023-06-14T08:47:50;25.40;39.00
65046;DHT22;54657;52.022;5.534;2023-06-14T08:50:21;25.30;38.60
65046;DHT22;54657;52.022;5.534;2023-06-14T08:52:51;25.30;38.30
65046;DHT22;54657;52.022;5.534;2023-06-14T08:55:19;25.30;38.80
65046;DHT22;54657;52.022;5.534;2023-06-14T08:57:46;25.30;38.80
65046;DHT22;54657;52.022;5.534;2023-06-14T09:00:13;25.40;38.80
65046;DHT22;54657;52.022;5.534;2023-06-14T09:02:40;25.40;38.70
65046;DHT22;54657;52.022;5.534;2023-06-14T09:05:11;25.50;38.30
65046;DHT22;54657;52.022;5.534;2023-06-14T09:07:39;25.50;38.60
65046;DHT22;54657;52.022;5.534;2023-06-14T09:10:08;25.60;38.70
65046;DHT22;54657;52.022;5.534;2023-06-14T09:12:34;25.70;38.30
65046;DHT22;54657;52.022;5.534;2023-06-14T09:14:59;25.70;38.30
65046;DHT22;54657;52.022;5.534;2023-06-14T09:17:25;25.70;37.80
65046;DHT22;54657;52.022;5.534;2023-06-14T09:19:51;25.60;37.60
65046;DHT22;54657;52.022;5.534;2023-06-14T09:22:19;25.50;37.80
65046;DHT22;54657;52.022;5.534;2023-06-14T09:24:45;25.50;37.80
65046;DHT22;54657;52.022;5.534;2023-06-14T09:27:15;25.40;37.40
65046;DHT22;54657;52.022;5.534;2023-06-14T09:29:43;25.30;36.90
65046;DHT22;54657;52.022;5.534;2023-06-14T09:32:09;25.30;37.20
65046;DHT22;54657;52.022;5.534;2023-06-14T09:34:36;25.40;37.40
65046;DHT22;54657;52.022;5.534;2023-06-14T09:37:02;25.40;36.90
65046;DHT22;54657;52.022;5.534;2023-06-14T09:39:28;25.40;36.70
65046;DHT22;54657;52.022;5.534;2023-06-14T09:41:53;25.30;36.40
65046;DHT22;54657;52.022;5.534;2023-06-14T09:44:19;25.20;36.20
65046;DHT22;54657;52.022;5.534;2023-06-14T09:46:49;25.20;36.50
65046;DHT22;54657;52.022;5.534;2023-06-14T09:49:17;25.30;36.40
65046;DHT22;54657;52.022;5.534;2023-06-14T09:51:45;25.30;36.80
65046;DHT22;54657;52.022;5.534;2023-06-14T09:54:15;25.40;36.20
65046;DHT22;54657;52.022;5.534;2023-06-14T09:56:44;25.50;36.50
65046;DHT22;54657;52.022;5.534;2023-06-14T09:59:10;25.60;36.40
65046;DHT22;54657;52.022;5.534;2023-06-14T10:01:41;25.50;35.90
65046;DHT22;54657;52.022;5.534;2023-06-14T10:04:07;25.60;36.00
65046;DHT22;54657;52.022;5.534;2023-06-14T10:06:37;25.60;36.00
65046;DHT22;54657;52.022;5.534;2023-06-14T10:09:05;25.50;35.80
65046;DHT22;54657;52.022;5.534;2023-06-14T10:11:33;25.60;36.10
65046;DHT22;54657;52.022;5.534;2023-06-14T10:14:01;25.50;36.20
65046;DHT22;54657;52.022;5.534;2023-06-14T10:19:29;25.70;35.80
65046;DHT22;54657;52.022;5.534;2023-06-14T10:22:23;25.60;34.50
65046;DHT22;54657;52.022;5.534;2023-06-14T10:24:51;25.80;35.00
65046;DHT22;54657;52.022;5.534;2023-06-14T10:27:17;25.80;35.90
65046;DHT22;54657;52.022;5.534;2023-06-14T10:32:18;25.70;34.90
65046;DHT22;54657;52.022;5.534;2023-06-14T10:34:44;25.60;35.60
65046;DHT22;54657;52.022;5.534;2023-06-14T10:37:14;25.60;35.90
65046;DHT22;54657;52.022;5.534;2023-06-14T10:39:44;25.70;35.90
65046;DHT22;54657;52.022;5.534;2023-06-14T10:42:11;25.90;35.90
65046;DHT22;54657;52.022;5.534;2023-06-14T10:44:50;25.90;35.30
65046;DHT22;54657;52.022;5.534;2023-06-14T10:47:31;25.80;34.20
65046;DHT22;54657;52.022;5.534;2023-06-14T10:50:06;25.60;35.10
65046;DHT22;54657;52.022;5.534;2023-06-14T10:52:38;25.60;35.20
65046;DHT22;54657;52.022;5.534;2023-06-14T10:55:09;25.60;35.70
65046;DHT22;54657;52.022;5.534;2023-06-14T10:57:54;25.70;35.90
65046;DHT22;54657;52.022;5.534;2023-06-14T11:00:25;25.80;35.30
65046;DHT22;54657;52.022;5.534;2023-06-14T11:05:49;26.10;35.40
65046;DHT22;54657;52.022;5.534;2023-06-14T11:11:06;26.00;35.60
65046;DHT22;54657;52.022;5.534;2023-06-14T11:13:32;26.00;35.50
65046;DHT22;54657;52.022;5.534;2023-06-14T11:15:59;26.00;35.80
65046;DHT22;54657;52.022;5.534;2023-06-14T11:18:25;26.00;35.30
65046;DHT22;54657;52.022;5.534;2023-06-14T11:20:52;25.90;35.70
65046;DHT22;54657;52.022;5.534;2023-06-14T11:23:18;26.00;35.60
65046;DHT22;54657;52.022;5.534;2023-06-14T11:25:49;25.90;35.60
65046;DHT22;54657;52.022;5.534;2023-06-14T11:28:14;26.00;35.30
65046;DHT22;54657;52.022;5.534;2023-06-14T11:30:40;26.00;35.50
65046;DHT22;54657;52.022;5.534;2023-06-14T11:33:10;26.00;35.60
65046;DHT22;54657;52.022;5.534;2023-06-14T11:35:36;26.10;35.40
65046;DHT22;54657;52.022;5.534;2023-06-14T11:38:02;26.20;35.20
65046;DHT22;54657;52.022;5.534;2023-06-14T11:40:28;26.10;35.20
65046;DHT22;54657;52.022;5.534;2023-06-14T11:43:01;26.00;35.30
65046;DHT22;54657;52.022;5.534;2023-06-14T11:45:28;26.00;34.90
65046;DHT22;54657;52.022;5.534;2023-06-14T11:47:55;26.00;35.20
65046;DHT22;54657;52.022;5.534;2023-06-14T11:50:24;26.00;35.40
65046;DHT22;54657;52.022;5.534;2023-06-14T11:52:57;26.10;35.00
65046;DHT22;54657;52.022;5.534;2023-06-14T11:55:25;26.30;34.40
65046;DHT22;54657;52.022;5.534;2023-06-14T11:57:50;26.30;35.10
65046;DHT22;54657;52.022;5.534;2023-06-14T12:00:17;26.40;35.10
65046;DHT22;54657;52.022;5.534;2023-06-14T12:02:43;26.60;35.20
65046;DHT22;54657;52.022;5.534;2023-06-14T12:05:20;26.60;35.40
65046;DHT22;54657;52.022;5.534;2023-06-14T12:07:46;26.40;34.30
65046;DHT22;54657;52.022;5.534;2023-06-14T12:10:14;26.30;34.80
65046;DHT22;54657;52.022;5.534;2023-06-14T12:12:40;26.30;34.80
65046;DHT22;54657;52.022;5.534;2023-06-14T12:15:09;26.20;34.80
65046;DHT22;54657;52.022;5.534;2023-06-14T12:17:37;26.20;34.80
65046;DHT22;54657;52.022;5.534;2023-06-14T12:20:12;26.30;34.90
65046;DHT22;54657;52.022;5.534;2023-06-14T12:22:56;26.30;34.60
65046;DHT22;54657;52.022;5.534;2023-06-14T12:25:33;26.40;34.70
65046;DHT22;54657;52.022;5.534;2023-06-14T12:28:04;26.30;34.10
65046;DHT22;54657;52.022;5.534;2023-06-14T12:30:30;26.20;34.70
65046;DHT22;54657;52.022;5.534;2023-06-14T12:32:56;26.20;34.90
65046;DHT22;54657;52.022;5.534;2023-06-14T12:35:31;26.20;35.00
65046;DHT22;54657;52.022;5.534;2023-06-14T12:37:57;26.20;34.70
65046;DHT22;54657;52.022;5.534;2023-06-14T12:44:41;26.30;34.60
65046;DHT22;54657;52.022;5.534;2023-06-14T12:47:10;26.30;33.50
65046;DHT22;54657;52.022;5.534;2023-06-14T12:49:48;26.30;34.00
65046;DHT22;54657;52.022;5.534;2023-06-14T12:52:14;26.20;33.60
65046;DHT22;54657;52.022;5.534;2023-06-14T12:54:47;26.20;34.50
65046;DHT22;54657;52.022;5.534;2023-06-14T13:00:02;26.20;34.40
65046;DHT22;54657;52.022;5.534;2023-06-14T13:02:46;26.20;34.60
65046;DHT22;54657;52.022;5.534;2023-06-14T13:05:39;26.40;34.30
65046;DHT22;54657;52.022;5.534;2023-06-14T13:08:07;26.60;34.30
65046;DHT22;54657;52.022;5.534;2023-06-14T13:10:33;26.50;34.50
65046;DHT22;54657;52.022;5.534;2023-06-14T13:12:59;26.40;34.60
65046;DHT22;54657;52.022;5.534;2023-06-14T13:15:25;26.30;34.90
65046;DHT22;54657;52.022;5.534;2023-06-14T13:17:51;26.30;35.00
65046;DHT22;54657;52.022;5.534;2023-06-14T13:20:17;26.50;35.00
65046;DHT22;54657;52.022;5.534;2023-06-14T13:22:45;26.60;34.70
65046;DHT22;54657;52.022;5.534;2023-06-14T13:25:41;26.60;34.60
65046;DHT22;54657;52.022;5.534;2023-06-14T13:28:17;26.60;34.10
65046;DHT22;54657;52.022;5.534;2023-06-14T13:30:42;26.60;34.60
65046;DHT22;54657;52.022;5.534;2023-06-14T13:33:16;26.60;34.20
65046;DHT22;54657;52.022;5.534;2023-06-14T13:39:37;26.70;33.10
65046;DHT22;54657;52.022;5.534;2023-06-14T13:45:32;26.70;33.90
65046;DHT22;54657;52.022;5.534;2023-06-14T13:54:35;26.70;33.30
65046;DHT22;54657;52.022;5.534;2023-06-14T13:57:23;26.70;34.10
65046;DHT22;54657;52.022;5.534;2023-06-14T14:10:42;26.80;33.70
65046;DHT22;54657;52.022;5.534;2023-06-14T14:20:22;26.70;32.80
65046;DHT22;54657;52.022;5.534;2023-06-14T14:22:53;26.70;33.10
65046;DHT22;54657;52.022;5.534;2023-06-14T14:36:27;26.80;33.20
65046;DHT22;54657;52.022;5.534;2023-06-14T14:42:03;26.50;33.70
65046;DHT22;54657;52.022;5.534;2023-06-14T14:45:27;26.60;33.80
65046;DHT22;54657;52.022;5.534;2023-06-14T14:48:14;26.60;34.20
65046;DHT22;54657;52.022;5.534;2023-06-14T14:54:26;26.60;34.20
65046;DHT22;54657;52.022;5.534;2023-06-14T14:57:03;26.70;33.90
65046;DHT22;54657;52.022;5.534;2023-06-14T15:03:23;26.80;34.20
65046;DHT22;54657;52.022;5.534;2023-06-14T15:05:49;26.80;33.60
65046;DHT22;54657;52.022;5.534;2023-06-14T15:08:15;26.70;34.30
65046;DHT22;54657;52.022;5.534;2023-06-14T15:10:40;26.70;34.20
65046;DHT22;54657;52.022;5.534;2023-06-14T15:13:10;26.70;34.10
65046;DHT22;54657;52.022;5.534;2023-06-14T15:15:36;26.70;34.10
65046;DHT22;54657;52.022;5.534;2023-06-14T15:18:02;26.70;34.30
65046;DHT22;54657;52.022;5.534;2023-06-14T15:20:27;26.60;34.20
65046;DHT22;54657;52.022;5.534;2023-06-14T15:23:03;26.60;34.00
65046;DHT22;54657;52.022;5.534;2023-06-14T15:25:29;26.50;33.90
65046;DHT22;54657;52.022;5.534;2023-06-14T15:27:55;26.50;34.10
65046;DHT22;54657;52.022;5.534;2023-06-14T15:30:21;26.50;33.90
65046;DHT22;54657;52.022;5.534;2023-06-14T15:32:47;26.40;33.50
65046;DHT22;54657;52.022;5.534;2023-06-14T15:35:13;26.50;33.60
65046;DHT22;54657;52.022;5.534;2023-06-14T15:37:39;26.60;33.70
65046;DHT22;54657;52.022;5.534;2023-06-14T15:40:05;26.60;33.70
65046;DHT22;54657;52.022;5.534;2023-06-14T15:42:31;26.50;33.40
65046;DHT22;54657;52.022;5.534;2023-06-14T15:44:56;26.50;33.70
65046;DHT22;54657;52.022;5.534;2023-06-14T15:47:23;26.50;33.70
65046;DHT22;54657;52.022;5.534;2023-06-14T15:49:48;26.50;33.90
65046;DHT22;54657;52.022;5.534;2023-06-14T15:52:14;26.60;34.00
65046;DHT22;54657;52.022;5.534;2023-06-14T15:54:39;26.60;33.80
65046;DHT22;54657;52.022;5.534;2023-06-14T15:57:05;26.50;33.60
65046;DHT22;54657;52.022;5.534;2023-06-14T15:59:30;26.50;34.50
65046;DHT22;54657;52.022;5.534;2023-06-14T16:01:56;26.30;34.00
65046;DHT22;54657;52.022;5.534;2023-06-14T16:04:21;26.40;34.20
65046;DHT22;54657;52.022;5.534;2023-06-14T16:06:47;26.40;33.90
65046;DHT22;54657;52.022;5.534;2023-06-14T16:09:12;26.30;33.80
65046;DHT22;54657;52.022;5.534;2023-06-14T16:11:38;26.20;33.70
65046;DHT22;54657;52.022;5.534;2023-06-14T16:14:04;26.20;33.50
65046;DHT22;54657;52.022;5.534;2023-06-14T16:16:29;26.20;33.60
65046;DHT22;54657;52.022;5.534;2023-06-14T16:18:55;26.30;33.80
65046;DHT22;54657;52.022;5.534;2023-06-14T16:21:20;26.20;33.90
65046;DHT22;54657;52.022;5.534;2023-06-14T16:23:46;26.30;34.20
65046;DHT22;54657;52.022;5.534;2023-06-14T16:26:15;26.30;34.10
65046;DHT22;54657;52.022;5.534;2023-06-14T16:28:40;26.30;33.90
65046;DHT22;54657;52.022;5.534;2023-06-14T16:31:12;26.40;34.10
65046;DHT22;54657;52.022;5.534;2023-06-14T16:33:40;26.40;34.10
65046;DHT22;54657;52.022;5.534;2023-06-14T16:36:05;26.40;34.20
65046;DHT22;54657;52.022;5.534;2023-06-14T16:38:31;26.40;34.30
65046;DHT22;54657;52.022;5.534;2023-06-14T16:40:58;26.40;34.10
65046;DHT22;54657;52.022;5.534;2023-06-14T16:43:24;26.30;34.00
65046;DHT22;54657;52.022;5.534;2023-06-14T16:45:49;26.30;34.10
65046;DHT22;54657;52.022;5.534;2023-06-14T16:48:15;26.30;34.20
65046;DHT22;54657;52.022;5.534;2023-06-14T16:50:41;26.30;34.30